createdAt,value
2022-11-23T00:04:45.237Z,4.63
2022-11-23T00:09:37.048Z,4.62
2022-11-23T00:14:28.822Z,4.65
2022-11-23T00:19:20.532Z,4.71
2022-11-23T00:24:13.442Z,4.72
2022-11-23T00:29:05.123Z,4.71
2022-11-23T00:33:57.969Z,4.73
2022-11-23T00:38:50.643Z,4.73
2022-11-23T00:43:43.396Z,4.75
2022-11-23T00:48:35.487Z,4.78
2022-11-23T00:53:27.665Z,4.83
2022-11-23T00:58:19.380Z,4.81
2022-11-23T01:03:11.078Z,4.83
2022-11-23T01:08:03.349Z,4.84
2022-11-23T01:12:54.969Z,4.86
2022-11-23T01:17:46.781Z,4.87
2022-11-23T01:22:38.480Z,4.91
2022-11-23T01:27:30.197Z,4.98
2022-11-23T01:32:21.861Z,5.02
2022-11-23T01:37:13.556Z,5.06
2022-11-23T01:42:08.167Z,5.05
2022-11-23T01:47:02.400Z,4.97
2022-11-23T01:51:58.077Z,4.93
2022-11-23T01:57:04.880Z,4.90
2022-11-23T02:01:56.825Z,4.83
2022-11-23T02:06:48.711Z,4.75
2022-11-23T02:11:40.421Z,4.68
2022-11-23T02:16:32.285Z,4.65
2022-11-23T02:21:24.348Z,4.60
2022-11-23T02:26:42.516Z,4.58
2022-11-23T02:31:34.229Z,4.54
2022-11-23T02:36:34.670Z,4.55
2022-11-23T02:41:26.371Z,4.55
2022-11-23T02:46:18.238Z,4.55
2022-11-23T02:51:09.849Z,4.54
2022-11-23T02:56:01.596Z,4.55
2022-11-23T03:00:53.309Z,4.54
2022-11-23T03:05:45.120Z,4.59
2022-11-23T03:10:37.155Z,4.62
2022-11-23T03:15:28.814Z,4.65
2022-11-23T03:20:20.798Z,4.68
2022-11-23T03:25:12.552Z,4.71
2022-11-23T03:30:04.943Z,4.76
2022-11-23T03:34:56.660Z,4.76
2022-11-23T03:39:48.323Z,4.82
2022-11-23T03:44:40.041Z,4.87
2022-11-23T03:49:31.884Z,4.88
2022-11-23T03:54:23.746Z,4.90
2022-11-23T03:59:15.645Z,4.92
2022-11-23T04:04:07.427Z,4.94
2022-11-23T04:09:02.220Z,4.98
2022-11-23T04:13:54.315Z,5.01
2022-11-23T04:18:45.876Z,5.05
2022-11-23T04:23:37.550Z,5.05
2022-11-23T04:28:29.341Z,5.09
2022-11-23T04:33:21.010Z,5.12
2022-11-23T04:38:12.751Z,5.12
2022-11-23T04:43:04.773Z,5.14
2022-11-23T04:47:56.540Z,5.18
2022-11-23T04:52:48.260Z,5.23
2022-11-23T04:57:40.026Z,5.23
2022-11-23T05:02:31.820Z,5.25
2022-11-23T05:07:23.570Z,5.25
2022-11-23T05:12:15.259Z,5.26
2022-11-23T05:17:06.985Z,5.29
2022-11-23T05:21:58.701Z,5.32
2022-11-23T05:26:54.871Z,5.30
2022-11-23T05:31:48.008Z,5.33
2022-11-23T05:36:42.397Z,5.34
2022-11-23T05:41:34.246Z,5.34
2022-11-23T05:46:25.983Z,5.36
2022-11-23T05:51:17.639Z,5.36
2022-11-23T05:56:09.539Z,5.37
2022-11-23T06:01:02.118Z,5.35
2022-11-23T06:05:53.901Z,5.34
2022-11-23T06:10:45.608Z,5.34
2022-11-23T06:15:37.623Z,5.32
2022-11-23T06:20:30.017Z,5.30
2022-11-23T06:25:22.348Z,5.30
2022-11-23T06:30:14.674Z,5.33
2022-11-23T06:35:06.645Z,5.35
2022-11-23T06:39:58.385Z,5.37
2022-11-23T06:44:50.145Z,5.40
2022-11-23T06:49:41.856Z,5.44
2022-11-23T06:54:33.457Z,5.48
2022-11-23T06:59:25.167Z,5.49
2022-11-23T07:04:16.966Z,5.53
2022-11-23T07:09:09.609Z,5.57
2022-11-23T07:14:01.166Z,5.59
2022-11-23T07:18:52.890Z,5.63
2022-11-23T07:23:44.656Z,5.68
2022-11-23T07:28:36.297Z,5.71
2022-11-23T07:33:28.113Z,5.73
2022-11-23T07:38:19.852Z,5.79
2022-11-23T07:43:11.570Z,5.81
2022-11-23T07:48:07.473Z,5.85
2022-11-23T07:52:59.270Z,5.90
2022-11-23T07:57:54.997Z,5.95
2022-11-23T08:03:11.285Z,5.99
2022-11-23T08:08:02.851Z,6.04
2022-11-23T08:12:58.454Z,6.10
2022-11-23T08:17:55.140Z,6.14
2022-11-23T08:22:46.973Z,6.18
2022-11-23T08:27:38.693Z,6.25
2022-11-23T08:32:30.420Z,6.30
2022-11-23T08:37:22.263Z,6.37
2022-11-23T08:42:14.028Z,6.42
2022-11-23T08:47:06.288Z,6.41
2022-11-23T08:51:58.231Z,6.48
2022-11-23T08:56:51.418Z,6.52
2022-11-23T09:01:44.165Z,6.55
2022-11-23T09:06:35.971Z,6.61
2022-11-23T09:11:27.816Z,6.64
2022-11-23T09:16:19.571Z,6.69
2022-11-23T09:21:11.372Z,6.73
2022-11-23T09:26:04.914Z,6.81
2022-11-23T09:30:57.480Z,6.90
2022-11-23T09:36:00.181Z,6.98
2022-11-23T09:41:16.794Z,7.07
2022-11-23T09:46:22.314Z,7.50
2022-11-23T09:51:19.616Z,8.03
2022-11-23T09:56:19.360Z,8.66
2022-11-23T10:01:16.757Z,9.09
2022-11-23T10:06:28.235Z,9.47
2022-11-23T10:11:45.152Z,9.80
2022-11-23T10:16:42.141Z,10.17
2022-11-23T10:21:55.799Z,10.45
2022-11-23T10:26:50.116Z,10.70
2022-11-23T10:31:47.114Z,10.86
2022-11-23T10:36:40.027Z,11.05
2022-11-23T10:41:56.324Z,11.22
2022-11-23T10:46:48.765Z,11.28
2022-11-23T10:51:41.339Z,11.43
2022-11-23T10:56:35.188Z,11.56
2022-11-23T11:01:29.745Z,11.51
2022-11-23T11:06:26.959Z,11.63
2022-11-23T11:11:27.230Z,11.82
2022-11-23T11:16:38.384Z,11.81
2022-11-23T11:21:34.586Z,11.80
2022-11-23T11:26:28.442Z,11.87
2022-11-23T11:31:32.417Z,11.87
2022-11-23T11:36:28.723Z,11.85
2022-11-23T11:41:25.579Z,11.79
2022-11-23T11:46:30.904Z,11.76
2022-11-23T11:51:33.151Z,11.80
2022-11-23T11:56:34.966Z,11.75
2022-11-23T12:01:36.358Z,11.68
2022-11-23T12:06:40.203Z,11.35
2022-11-23T12:11:33.152Z,11.14
2022-11-23T12:16:24.917Z,11.13
2022-11-23T12:21:35.587Z,11.20
2022-11-23T12:27:09.606Z,11.06
2022-11-23T12:32:43.098Z,10.83
2022-11-23T12:37:40.621Z,10.55
2022-11-23T12:42:58.533Z,10.40
2022-11-23T12:48:20.887Z,10.24
2022-11-23T12:53:36.984Z,10.17
2022-11-23T12:58:30.877Z,10.20
2022-11-23T13:03:22.753Z,10.12
2022-11-23T13:08:30.398Z,9.91
2022-11-23T13:13:33.744Z,9.81
2022-11-23T13:19:04.901Z,9.70
2022-11-23T13:23:57.294Z,9.56
2022-11-23T13:28:53.169Z,9.42
2022-11-23T13:33:48.048Z,9.26
2022-11-23T13:38:42.161Z,9.17
2022-11-23T13:43:37.158Z,9.04
2022-11-23T13:48:57.982Z,8.95
2022-11-23T13:53:43.265Z,8.84
2022-11-23T13:58:39.663Z,8.69
2022-11-23T14:03:44.221Z,8.62
2022-11-23T14:08:38.601Z,8.55
2022-11-23T14:13:33.987Z,8.51
2022-11-23T14:18:49.242Z,8.47
2022-11-23T14:23:44.229Z,8.40
2022-11-23T14:28:57.278Z,8.31
2022-11-23T14:34:21.315Z,8.33
2022-11-23T14:39:28.020Z,8.34
2022-11-23T14:44:25.674Z,8.38
2022-11-23T14:49:17.637Z,8.36
2022-11-23T14:54:11.285Z,8.32
2022-11-23T14:59:11.048Z,8.30
2022-11-23T15:04:21.451Z,8.28
2022-11-23T15:09:19.753Z,8.19
2022-11-23T15:14:20.520Z,8.11
2022-11-23T15:19:38.784Z,8.00
2022-11-23T15:24:31.015Z,7.93
2022-11-23T15:29:35.588Z,7.87
2022-11-23T15:34:28.421Z,7.78
2022-11-23T15:39:24.183Z,7.78
2022-11-23T15:44:23.959Z,7.79
2022-11-23T15:49:16.781Z,7.78
2022-11-23T15:54:28.271Z,7.78
2022-11-23T15:59:29.091Z,7.75
2022-11-23T16:04:31.439Z,7.71
2022-11-23T16:09:54.317Z,7.69
2022-11-23T16:14:46.220Z,7.64
2022-11-23T16:19:38.038Z,7.59
2022-11-23T16:24:32.542Z,7.53
2022-11-23T16:29:27.237Z,7.48
2022-11-23T16:34:19.708Z,7.42
2022-11-23T16:39:12.018Z,7.32
2022-11-23T16:44:04.270Z,7.27
2022-11-23T16:48:59.174Z,7.21
2022-11-23T16:54:12.893Z,7.15
2022-11-23T16:59:02.775Z,7.11
2022-11-23T17:03:54.541Z,7.08
2022-11-23T17:08:46.619Z,7.10
2022-11-23T17:13:38.419Z,7.09
2022-11-23T17:18:30.072Z,7.07
2022-11-23T17:23:22.522Z,6.99
2022-11-23T17:28:22.541Z,6.95
2022-11-23T17:33:14.514Z,6.90
2022-11-23T17:38:08.097Z,6.87
2022-11-23T17:42:59.741Z,6.85
2022-11-23T17:47:51.719Z,6.83
2022-11-23T17:52:47.784Z,6.89
2022-11-23T17:57:39.950Z,6.93
2022-11-23T18:02:31.697Z,6.94
2022-11-23T18:07:23.608Z,6.94
2022-11-23T18:12:15.401Z,6.98
2022-11-23T18:17:07.220Z,7.01
2022-11-23T18:21:59.243Z,7.07
2022-11-23T18:26:50.962Z,7.11
2022-11-23T18:31:42.928Z,7.12
2022-11-23T18:36:34.547Z,7.11
2022-11-23T18:41:26.293Z,7.16
2022-11-23T18:46:19.155Z,7.20
2022-11-23T18:51:13.459Z,7.23
2022-11-23T18:56:06.919Z,7.27
2022-11-23T19:00:58.645Z,7.26
2022-11-23T19:05:50.535Z,7.25
2022-11-23T19:10:42.286Z,7.23
2022-11-23T19:15:34.383Z,7.22
2022-11-23T19:20:26.259Z,7.19
2022-11-23T19:25:19.447Z,7.18
2022-11-23T19:30:13.842Z,7.12
2022-11-23T19:35:06.214Z,7.09
2022-11-23T19:39:58.083Z,7.02
2022-11-23T19:44:49.942Z,6.95
2022-11-23T19:49:42.583Z,6.87
2022-11-23T19:54:35.657Z,6.80
2022-11-23T19:59:27.843Z,6.70
2022-11-23T20:04:19.471Z,6.66
2022-11-23T20:09:17.300Z,6.58
2022-11-23T20:14:11.832Z,6.53
2022-11-23T20:19:08.219Z,6.45
2022-11-23T20:24:05.210Z,6.37
2022-11-23T20:28:59.258Z,6.34
2022-11-23T20:33:51.665Z,6.33
2022-11-23T20:38:43.988Z,6.33
2022-11-23T20:43:35.615Z,6.28
2022-11-23T20:48:27.777Z,6.25
2022-11-23T20:53:19.514Z,6.23
2022-11-23T20:58:11.430Z,6.20
2022-11-23T21:03:03.232Z,6.17
2022-11-23T21:07:55.154Z,6.16
2022-11-23T21:13:05.619Z,6.13
2022-11-23T21:17:57.535Z,6.10
2022-11-23T21:22:49.190Z,6.11
2022-11-23T21:27:40.833Z,6.16
2022-11-23T21:32:32.551Z,6.17
2022-11-23T21:37:26.081Z,6.20
2022-11-23T21:42:17.775Z,6.22
2022-11-23T21:47:09.475Z,6.23
2022-11-23T21:52:01.397Z,6.22
2022-11-23T21:56:53.014Z,6.19
2022-11-23T22:01:44.856Z,6.20
2022-11-23T22:06:38.235Z,6.22
2022-11-23T22:11:32.438Z,6.26
2022-11-23T22:16:27.268Z,6.29
2022-11-23T22:21:20.705Z,6.32
2022-11-23T22:26:17.493Z,6.32
2022-11-23T22:31:12.128Z,6.33
2022-11-23T22:36:07.131Z,6.31
2022-11-23T22:41:00.170Z,6.32
2022-11-23T22:45:52.023Z,6.28
2022-11-23T22:50:46.526Z,6.30
2022-11-23T22:55:38.646Z,6.27
2022-11-23T23:00:30.400Z,6.22
2022-11-23T23:05:22.041Z,6.20
2022-11-23T23:10:13.945Z,6.19
2022-11-23T23:15:06.008Z,6.16
2022-11-23T23:19:57.748Z,6.20
2022-11-23T23:24:49.611Z,6.22
2022-11-23T23:29:41.386Z,6.26
2022-11-23T23:34:33.178Z,6.30
2022-11-23T23:39:25.008Z,6.31
2022-11-23T23:44:16.847Z,6.30
2022-11-23T23:49:08.640Z,6.29
2022-11-23T23:54:00.328Z,6.30
2022-11-23T23:58:52.755Z,6.25
